sim
Sign-in with your pilot id or email,
or register
Callsign
Passwort

Schedule Details

Flight Number: RYR5082 (3)
Departure: Paphos International Airport (LCPH) at 08:10
Arrival: Thessaloniki International Airport (LGTS) at 10:15
Route: Ryanair Passenger Schedule. Enter filed route here before submitting Pirep.

Weather Information
Getting current METAR information for LCPH 211530Z 04004KT 9999 FEW020 FEW030TCU 15/08 Q1019
Getting current METAR information for LGTS 211520Z 35006KT CAVOK 16/00 Q1021 NOSIG

Schedule Frequency

Route Map